Terminal Aerodrome Forecast
Issued by NWS Lubbock, TX

Home | Current Version | Previous Version | Text Only | Print | Product List | Glossary On
Versions: 1 2 3 4 5 6 7 8 9 10 11 12 13 14 15 16 17 18 19 20 21 22 23 24 25 26
010
FTUS44 KLUB 051720
TAFLBB
TAF
KLBB 051720Z 0518/0618 23015KT P6SM FEW250
     FM060000 26011KT P6SM SCT250
     FM060700 01015KT P6SM SCT250=

USA.gov is the U.S. government's official web portal to all federal, state and local government web resources and services.